Flight Track Log - Related Links

Times and Time Zones

All times are in EDT time to prevent confusion due to time zone crossing. See the SKW7363 flight status page for this flight to view local times or setup timezone preferences in your user account.

Time Position Orientation Groundspeed Altitude Reporting Facility
EDT Latitude Longitude Course Direction KTS MPH feet Rate Location/Type
Mon 14:08:35 45.4978 -98.4303 98° East 243 280 3,700  Level Minneapolis Center
Mon 14:09:37 45.4492 -98.3486 130° Southeast 269 310 7,000 2,806 Climbing Minneapolis Center
Mon 14:10:39 45.4003 -98.2558 127° Southeast 286 329 9,500 2,516 Climbing Minneapolis Center
Mon 14:11:00 45.3769 -97.6115 97° East  Level Estimated
Mon 14:11:41 45.3681 -98.1406 112° Southeast 310 357 12,200  Level Minneapolis Center
Mon 14:12:00 45.3643 -97.4766 98° East  Level Estimated
Mon 14:12:43 45.3333 -98.0258 113° Southeast 321 369 14,200  Level Minneapolis Center
Mon 14:13:00 45.3516 -97.3419 98° East  Level Estimated
Mon 14:13:45 45.2956 -97.8933 112° Southeast 349 402 15,600  Level Minneapolis Center
Mon 14:14:00 45.3387 -97.2071 98° East  Level Estimated
Mon 14:14:47 45.2472 -97.7203 112° Southeast 385 443 17,700  Level Minneapolis Center
Mon 14:15:49 45.2042 -97.5733 113° Southeast 398 458 19,500 1,694 Climbing Minneapolis Center
Mon 14:16:51 45.1625 -97.4244 112° Southeast 405 466 21,200 1,548 Climbing Minneapolis Center
Mon 14:17:53 45.1186 -97.2742 112° Southeast 411 473 22,700 1,161 Climbing Minneapolis Center
Mon 14:18:55 45.0731 -97.1214 113° Southeast 418 481 23,600 919 Climbing Minneapolis Center
Mon 14:19:57 45.0267 -96.9633 113° Southeast 433 498 24,600 1,016 Climbing Minneapolis Center
Mon 14:20:59 44.9700 -96.7689 112° Southeast 444 511 25,700 960 Climbing Minneapolis Center
Mon 14:22:02 44.9211 -96.6047 113° Southeast 453 521 26,600 624 Climbing Minneapolis Center
Mon 14:23:04 44.8711 -96.4381 113° Southeast 459 528 27,000 194 Climbing Minneapolis Center
Mon 14:24:06 44.8211 -96.2719 113° Southeast 459 528 27,000  Level Minneapolis Center
Mon 14:25:08 44.7700 -96.1056 113° Southeast 460 529 27,000  Level Minneapolis Center
Mon 14:26:10 44.7192 -95.9408 113° Southeast 458 527 27,000  Level Minneapolis Center
Mon 14:27:12 44.6692 -95.7733 113° Southeast 461 531 27,000 -387 Level Minneapolis Center
Mon 14:28:14 44.6072 -95.5758 114° Southeast 459 528 26,200 -871 Descending Minneapolis Center
Mon 14:29:16 44.5572 -95.4128 113° Southeast 457 526 25,200 -968 Descending Minneapolis Center
Mon 14:30:18 44.5081 -95.2581 114° Southeast 444 511 24,200 -968 Descending Minneapolis Center
Mon 14:31:20 44.4761 -95.0992 106° East 432 497 23,200 -968 Descending Minneapolis Center
Mon 14:32:22 44.5117 -94.9461 72° East 414 476 22,200 -968 Descending Minneapolis Center
Mon 14:33:24 44.5478 -94.7950 71° East 411 473 21,200 -1,500 Descending Minneapolis Center
Mon 14:34:26 44.5847 -94.6328 72° East 404 465 19,100 -2,323 Descending Minneapolis Center
Mon 14:35:28 44.6197 -94.4861 71° East 399 459 16,400 -2,661 Descending Minneapolis Center
Mon 14:36:30 44.6522 -94.3414 72° East 389 448 13,600 -2,516 Descending Minneapolis Center
Mon 14:37:32 44.6842 -94.2042 72° East 371 427 11,200 -1,210 Descending Minneapolis Center
Mon 14:38:34 44.7194 -94.0428 73° East 360 414 11,100 -48 Descending Minneapolis Center
Mon 14:39:36 44.7492 -93.9097 72° East 357 411 11,100 -48 Level Minneapolis Center
Mon 14:40:39 44.7781 -93.7786 73° East 352 405 11,000 -144 Descending Minneapolis Center
Mon 14:41:41 44.8064 -93.6481 73° East 349 402 10,800 -435 Descending Minneapolis Center
Mon 14:42:43 44.8317 -93.5353 72° East 303 349 10,100 -823 Descending Minneapolis Center
Mon 14:43:45 44.8564 -93.4225 73° East 299 344 9,100 -1,016 Descending Minneapolis Center
Mon 14:44:47 44.8281 -93.3069 109° East 302 348 8,000 -919 Descending Minneapolis Center
Mon 14:45:49 44.7561 -93.2967 174° South 268 308 7,200 -823 Descending Minneapolis Center
Mon 14:46:51 44.6914 -93.2903 176° South 246 283 6,300 -677 Descending Minneapolis Center
Mon 14:47:53 44.6794 -93.2214 104° East 231 266 5,800 -968 Descending Minneapolis Center
Mon 14:48:55 44.7419 -93.2050 11° North 199 229 4,300 -1,403 Descending Minneapolis Center
Mon 14:49:57 44.7803 -93.2144 350° North 155 178 2,900 -1,161 Descending Minneapolis Center
Mon 14:50:59 44.8161 -93.2236 350° North 135 155 1,900 -919 Descending Minneapolis Center
Mon 14:52:01 44.8586 -93.2347 350° North 131 151 1,000 -871 Descending Minneapolis Center

Login

Don't have an account? Register now (free) for customized features, flight alerts, and more!